createdAt,value
2018-12-31T00:00:30.690Z,95258.02
2018-12-31T00:03:04.490Z,95254.17
2018-12-31T00:05:37.918Z,95260.11
2018-12-31T00:08:11.127Z,95258.25
2018-12-31T00:10:44.331Z,95261.85
2018-12-31T00:13:17.230Z,95263.36
2018-12-31T00:15:50.236Z,95263.67
2018-12-31T00:18:23.340Z,95262.66
2018-12-31T00:20:56.748Z,95263.84
2018-12-31T00:23:30.275Z,95266.11
2018-12-31T00:26:04.031Z,95259.67
2018-12-31T00:28:37.832Z,95268.05
2018-12-31T00:31:11.258Z,95271.03
2018-12-31T00:33:44.722Z,95273.69
2018-12-31T00:36:17.698Z,95273.89
2018-12-31T00:38:50.672Z,95272.58
2018-12-31T00:41:23.930Z,95270.61
2018-12-31T00:43:56.934Z,95270.42
2018-12-31T00:46:29.765Z,95263.30
2018-12-31T00:49:02.689Z,95264.20
2018-12-31T00:51:35.540Z,95263.69
2018-12-31T00:54:08.399Z,95261.10
2018-12-31T00:56:41.467Z,95265.78
2018-12-31T00:59:14.534Z,95259.95
2018-12-31T01:01:49.046Z,95257.45
2018-12-31T01:04:21.979Z,95257.04
2018-12-31T01:06:54.760Z,95253.56
2018-12-31T01:09:27.869Z,95247.90
2018-12-31T01:12:00.912Z,95249.52
2018-12-31T01:14:34.023Z,95240.61
2018-12-31T01:17:07.283Z,95242.38
2018-12-31T01:19:40.400Z,95237.05
2018-12-31T01:22:13.986Z,95241.14
2018-12-31T01:24:47.390Z,95235.94
2018-12-31T01:27:20.515Z,95229.46
2018-12-31T01:29:53.330Z,95225.25
2018-12-31T01:32:26.089Z,95222.09
2018-12-31T01:34:59.160Z,95219.27
2018-12-31T01:37:32.058Z,95216.64
2018-12-31T01:40:05.065Z,95217.52
2018-12-31T01:42:39.306Z,95216.70
2018-12-31T01:45:13.371Z,95216.86
2018-12-31T01:47:46.619Z,95209.16
2018-12-31T01:50:19.495Z,95210.08
2018-12-31T01:52:52.445Z,95209.23
2018-12-31T01:55:25.403Z,95202.55
2018-12-31T01:57:58.269Z,95199.30
2018-12-31T02:00:31.737Z,95201.90
2018-12-31T02:03:04.794Z,95204.80
2018-12-31T02:05:38.045Z,95200.41
2018-12-31T02:08:12.316Z,95194.32
2018-12-31T02:10:45.173Z,95193.02
2018-12-31T02:13:18.210Z,95193.73
2018-12-31T02:15:52.390Z,95192.25
2018-12-31T02:18:25.202Z,95188.22
2018-12-31T02:20:57.979Z,95186.44
2018-12-31T02:23:30.995Z,95183.67
2018-12-31T02:26:03.809Z,95182.75
2018-12-31T02:28:37.035Z,95178.54
2018-12-31T02:31:11.084Z,95178.39
2018-12-31T02:33:44.458Z,95180.52
2018-12-31T02:36:17.234Z,95177.25
2018-12-31T02:38:50.113Z,95178.82
2018-12-31T02:41:22.852Z,95176.23
2018-12-31T02:43:55.869Z,95175.45
2018-12-31T02:46:29.056Z,95174.63
2018-12-31T02:49:01.949Z,95169.58
2018-12-31T02:51:35.125Z,95164.27
2018-12-31T02:54:08.098Z,95162.33
2018-12-31T02:56:41.203Z,95166.16
2018-12-31T02:59:14.081Z,95168.15
2018-12-31T03:01:47.093Z,95167.36
2018-12-31T03:04:20.132Z,95166.51
2018-12-31T03:06:53.270Z,95156.00
2018-12-31T03:09:27.204Z,95155.05
2018-12-31T03:12:00.288Z,95159.19
2018-12-31T03:14:33.360Z,95159.22
2018-12-31T03:17:06.332Z,95154.89
2018-12-31T03:19:39.575Z,95161.55
2018-12-31T03:22:13.707Z,95161.02
2018-12-31T03:24:46.466Z,95166.33
2018-12-31T03:27:19.279Z,95163.30
2018-12-31T03:29:52.508Z,95164.39
2018-12-31T03:32:26.752Z,95162.88
2018-12-31T03:34:59.569Z,95166.82
2018-12-31T03:37:32.622Z,95163.61
2018-12-31T03:40:05.904Z,95168.21
2018-12-31T03:42:38.913Z,95167.26
2018-12-31T03:45:11.919Z,95167.77
2018-12-31T03:51:05.282Z,95171.70
2018-12-31T03:53:38.480Z,95164.09
2018-12-31T03:56:11.535Z,95164.70
2018-12-31T03:58:44.707Z,95168.37
2018-12-31T04:01:17.906Z,95172.79
2018-12-31T04:03:50.637Z,95177.04
2018-12-31T04:06:23.780Z,95170.51
2018-12-31T04:08:56.699Z,95171.31
2018-12-31T04:11:29.801Z,95177.66
2018-12-31T04:14:02.586Z,95180.98
2018-12-31T04:16:35.291Z,95182.91
2018-12-31T04:19:08.551Z,95181.74
2018-12-31T04:21:41.569Z,95186.28
2018-12-31T04:24:14.512Z,95186.22
2018-12-31T04:26:47.476Z,95188.86
2018-12-31T04:29:20.312Z,95195.91
2018-12-31T04:31:54.166Z,95195.09
2018-12-31T04:34:26.880Z,95201.11
2018-12-31T04:36:59.920Z,95202.25
2018-12-31T04:39:32.788Z,95204.88
2018-12-31T04:42:05.815Z,95206.52
2018-12-31T04:44:38.793Z,95208.89
2018-12-31T04:47:12.179Z,95207.48
2018-12-31T04:49:45.296Z,95212.60
2018-12-31T04:52:18.554Z,95205.58
2018-12-31T04:54:51.657Z,95210.97
2018-12-31T04:57:24.655Z,95212.42
2018-12-31T04:59:57.985Z,95214.70
2018-12-31T05:02:30.909Z,95213.87
2018-12-31T05:05:03.811Z,95214.94
2018-12-31T05:07:36.726Z,95212.66
2018-12-31T05:10:10.386Z,95220.74
2018-12-31T05:12:43.295Z,95215.20
2018-12-31T05:15:16.345Z,95210.84
2018-12-31T05:17:49.371Z,95213.93
2018-12-31T05:20:22.650Z,95212.73
2018-12-31T05:22:55.343Z,95213.44
2018-12-31T05:25:28.400Z,95214.15
2018-12-31T05:28:01.119Z,95215.93
2018-12-31T05:30:34.191Z,95214.52
2018-12-31T05:33:07.224Z,95217.25
2018-12-31T05:35:40.323Z,95216.88
2018-12-31T05:38:13.276Z,95217.97
2018-12-31T05:40:46.301Z,95218.84
2018-12-31T05:43:19.596Z,95216.67
2018-12-31T05:45:52.559Z,95224.91
2018-12-31T05:48:25.720Z,95224.83
2018-12-31T05:50:59.065Z,95226.91
2018-12-31T05:53:31.952Z,95223.77
2018-12-31T05:56:06.294Z,95231.59
2018-12-31T05:58:39.243Z,95228.66
2018-12-31T06:01:12.390Z,95230.24
2018-12-31T06:03:45.331Z,95229.45
2018-12-31T06:06:18.477Z,95235.66
2018-12-31T06:08:51.417Z,95237.81
2018-12-31T06:11:24.324Z,95233.02
2018-12-31T06:13:57.325Z,95237.07
2018-12-31T06:16:31.906Z,95244.28
2018-12-31T06:19:04.752Z,95249.11
2018-12-31T06:21:38.775Z,95246.42
2018-12-31T06:24:11.745Z,95247.28
2018-12-31T06:26:44.667Z,95246.35
2018-12-31T06:29:18.782Z,95251.98
2018-12-31T06:31:51.790Z,95251.16
2018-12-31T06:34:24.649Z,95255.66
2018-12-31T06:36:57.601Z,95251.38
2018-12-31T06:39:30.589Z,95253.48
2018-12-31T06:42:03.630Z,95257.84
2018-12-31T06:44:38.032Z,95259.80
2018-12-31T06:47:11.138Z,95264.59
2018-12-31T06:49:44.456Z,95267.89
2018-12-31T06:52:17.857Z,95270.48
2018-12-31T06:54:50.898Z,95269.30
2018-12-31T06:57:25.267Z,95265.88
2018-12-31T06:59:58.322Z,95272.82
2018-12-31T07:02:31.543Z,95269.03
2018-12-31T07:05:04.719Z,95261.33
2018-12-31T07:07:38.251Z,95262.38
2018-12-31T07:10:11.612Z,95261.17
2018-12-31T07:12:44.690Z,95261.54
2018-12-31T07:15:17.919Z,95257.72
2018-12-31T07:17:51.294Z,95261.38
2018-12-31T07:20:26.195Z,95262.56
2018-12-31T07:23:00.570Z,95260.94
2018-12-31T07:25:36.664Z,95261.42
2018-12-31T07:28:14.931Z,95259.34
2018-12-31T07:30:49.805Z,95262.25
2018-12-31T07:33:25.150Z,95264.31
2018-12-31T07:36:02.627Z,95267.37
2018-12-31T07:38:35.809Z,95262.23
2018-12-31T07:41:09.091Z,95264.72
2018-12-31T07:43:42.426Z,95264.17
2018-12-31T07:46:15.461Z,95269.63
2018-12-31T07:48:48.593Z,95267.37
2018-12-31T07:51:21.538Z,95269.41
2018-12-31T07:53:54.688Z,95265.58
2018-12-31T07:56:27.614Z,95255.99
2018-12-31T07:59:01.096Z,95256.02
2018-12-31T08:01:34.207Z,95257.08
2018-12-31T08:04:07.208Z,95257.23
2018-12-31T08:06:40.690Z,95262.27
2018-12-31T08:09:14.047Z,95266.93
2018-12-31T08:11:47.417Z,95259.53
2018-12-31T08:14:20.551Z,95266.66
2018-12-31T08:16:53.802Z,95268.95
2018-12-31T08:19:27.302Z,95268.76
2018-12-31T08:22:00.326Z,95273.75
2018-12-31T08:24:33.612Z,95271.92
2018-12-31T08:27:06.522Z,95278.26
2018-12-31T08:29:39.827Z,95276.83
2018-12-31T08:32:13.016Z,95278.45
2018-12-31T08:34:46.123Z,95278.98
2018-12-31T08:37:19.703Z,95283.44
2018-12-31T08:39:52.805Z,95282.46
2018-12-31T08:42:25.654Z,95279.70
2018-12-31T08:44:58.953Z,95279.00
2018-12-31T08:47:32.101Z,95275.13
2018-12-31T08:50:05.139Z,95278.47
2018-12-31T08:52:38.912Z,95280.59
2018-12-31T08:55:12.351Z,95276.23
2018-12-31T08:57:45.775Z,95267.98
2018-12-31T09:00:18.646Z,95260.35
2018-12-31T09:02:51.717Z,95259.19
2018-12-31T09:05:24.832Z,95257.16
2018-12-31T09:07:58.058Z,95256.50
2018-12-31T09:10:31.484Z,95259.77
2018-12-31T09:13:04.669Z,95250.38
2018-12-31T09:15:38.324Z,95255.49
2018-12-31T09:18:11.364Z,95246.48
2018-12-31T09:20:44.769Z,95250.19
2018-12-31T09:23:17.824Z,95249.48
2018-12-31T09:25:50.798Z,95247.16
2018-12-31T09:28:23.718Z,95247.30
2018-12-31T09:30:56.332Z,95247.43
2018-12-31T09:33:29.282Z,95244.26
2018-12-31T09:36:02.346Z,95238.65
2018-12-31T09:38:35.371Z,95240.73
2018-12-31T09:41:09.383Z,95241.43
2018-12-31T09:43:42.415Z,95235.20
2018-12-31T09:46:15.643Z,95238.77
2018-12-31T09:48:48.595Z,95237.41
2018-12-31T09:51:22.040Z,95234.22
2018-12-31T09:53:55.408Z,95228.59
2018-12-31T09:56:28.164Z,95234.26
2018-12-31T09:59:00.970Z,95229.35
2018-12-31T10:01:34.274Z,95223.37
2018-12-31T10:04:07.510Z,95224.91
2018-12-31T10:06:40.157Z,95226.87
2018-12-31T10:09:13.481Z,95223.98
2018-12-31T10:11:46.561Z,95222.49
2018-12-31T10:14:19.720Z,95219.64
2018-12-31T10:16:57.478Z,95215.76
2018-12-31T10:19:30.859Z,95221.76
2018-12-31T10:22:04.018Z,95218.81
2018-12-31T10:24:37.024Z,95214.37
2018-12-31T10:27:10.008Z,95212.72
2018-12-31T10:29:43.086Z,95212.33
2018-12-31T10:32:16.119Z,95211.81
2018-12-31T10:34:49.517Z,95205.22
2018-12-31T10:37:22.672Z,95206.13
2018-12-31T10:39:56.245Z,95207.70
2018-12-31T10:42:29.871Z,95205.42
2018-12-31T10:45:03.083Z,95203.13
2018-12-31T10:47:35.855Z,95205.33
2018-12-31T10:50:10.947Z,95197.50
2018-12-31T10:52:44.358Z,95194.38
2018-12-31T10:55:17.912Z,95190.89
2018-12-31T10:57:51.186Z,95191.52
2018-12-31T11:00:27.317Z,95180.41
2018-12-31T11:03:00.289Z,95181.03
2018-12-31T11:05:33.687Z,95176.64
2018-12-31T11:08:06.701Z,95178.23
2018-12-31T11:10:40.140Z,95175.06
2018-12-31T11:13:13.066Z,95179.05
2018-12-31T11:15:46.424Z,95172.68
2018-12-31T11:18:19.915Z,95170.02
2018-12-31T11:20:53.072Z,95168.71
2018-12-31T11:23:26.730Z,95168.23
2018-12-31T11:25:59.883Z,95166.62
2018-12-31T11:28:33.411Z,95166.33
2018-12-31T11:31:06.706Z,95167.48
2018-12-31T11:33:39.891Z,95166.09
2018-12-31T11:36:13.419Z,95167.42
2018-12-31T11:38:46.701Z,95171.93
2018-12-31T11:41:20.159Z,95174.50
2018-12-31T11:43:53.478Z,95174.42
2018-12-31T11:46:26.686Z,95168.59
2018-12-31T11:49:00.201Z,95171.18
2018-12-31T11:51:33.665Z,95169.98
2018-12-31T11:54:06.847Z,95173.69
2018-12-31T11:56:40.457Z,95174.53
2018-12-31T11:59:13.761Z,95167.42
2018-12-31T12:01:46.996Z,95168.58
2018-12-31T12:04:19.914Z,95165.41
2018-12-31T12:06:53.496Z,95165.97
2018-12-31T12:09:28.284Z,95165.59
2018-12-31T12:12:01.232Z,95161.33
2018-12-31T12:14:34.715Z,95169.14
2018-12-31T12:17:07.753Z,95170.71
2018-12-31T12:19:41.042Z,95163.68
2018-12-31T12:22:14.376Z,95171.45
2018-12-31T12:24:47.691Z,95172.04
2018-12-31T12:27:21.138Z,95176.48
2018-12-31T12:29:54.227Z,95173.05
2018-12-31T12:32:31.031Z,95176.81
2018-12-31T12:35:04.220Z,95175.84
2018-12-31T12:37:38.018Z,95176.65
2018-12-31T12:40:12.288Z,95181.58
2018-12-31T12:52:26.368Z,95183.20
2018-12-31T12:54:59.556Z,95180.66
2018-12-31T12:57:33.233Z,95182.97
2018-12-31T13:00:07.272Z,95183.10
2018-12-31T13:02:40.708Z,95183.16
2018-12-31T13:05:14.224Z,95180.76
2018-12-31T13:07:47.381Z,95186.93
2018-12-31T13:10:20.385Z,95189.26
2018-12-31T13:12:53.659Z,95189.05
2018-12-31T13:15:26.638Z,95193.11
2018-12-31T13:18:00.049Z,95192.44
2018-12-31T13:20:33.419Z,95192.66
2018-12-31T13:23:06.484Z,95190.19
2018-12-31T13:25:39.843Z,95192.67
2018-12-31T13:28:15.868Z,95204.10
2018-12-31T13:30:49.007Z,95197.23
2018-12-31T13:33:22.014Z,95200.59
2018-12-31T13:35:55.764Z,95201.00
2018-12-31T13:38:29.104Z,95208.58
2018-12-31T13:41:02.452Z,95211.07
2018-12-31T13:43:35.824Z,95209.74
2018-12-31T13:46:08.968Z,95205.06
2018-12-31T13:48:42.447Z,95209.85
2018-12-31T13:51:15.352Z,95201.48
2018-12-31T13:53:50.813Z,95212.70
2018-12-31T13:56:24.911Z,95211.48
2018-12-31T13:58:58.243Z,95216.19
2018-12-31T14:01:33.703Z,95214.59
2018-12-31T14:04:07.885Z,95211.37
2018-12-31T14:06:41.416Z,95216.46
2018-12-31T14:09:14.636Z,95221.00
2018-12-31T14:11:47.939Z,95222.81
2018-12-31T14:14:22.011Z,95220.70
2018-12-31T14:16:55.175Z,95223.73
2018-12-31T14:19:28.964Z,95222.30
2018-12-31T14:22:02.486Z,95228.31
2018-12-31T14:24:35.907Z,95221.30
2018-12-31T14:27:09.174Z,95222.13
2018-12-31T14:29:42.487Z,95223.64
2018-12-31T14:32:15.973Z,95225.05
2018-12-31T14:34:49.512Z,95221.72
2018-12-31T14:37:23.236Z,95223.88
2018-12-31T14:39:56.632Z,95223.44
2018-12-31T14:42:30.196Z,95221.61
2018-12-31T14:45:03.487Z,95223.79
2018-12-31T14:47:36.708Z,95227.60
2018-12-31T14:50:10.159Z,95229.78
2018-12-31T14:52:43.082Z,95233.78
2018-12-31T14:55:16.739Z,95233.06
2018-12-31T14:57:50.088Z,95236.95
2018-12-31T15:00:23.680Z,95234.59
2018-12-31T15:02:56.617Z,95231.53
2018-12-31T15:05:29.968Z,95236.49
2018-12-31T15:08:03.403Z,95238.74
2018-12-31T15:10:37.121Z,95242.48
2018-12-31T15:13:10.862Z,95240.04
2018-12-31T15:15:45.252Z,95244.94
2018-12-31T15:18:39.140Z,95240.58
2018-12-31T15:21:13.062Z,95248.23
2018-12-31T15:23:46.433Z,95247.46
2018-12-31T15:26:19.997Z,95253.47
2018-12-31T15:28:53.838Z,95253.14
2018-12-31T15:31:27.423Z,95254.81
2018-12-31T15:34:01.109Z,95258.77
2018-12-31T15:36:34.580Z,95265.50
2018-12-31T15:39:09.360Z,95263.42
2018-12-31T15:41:42.930Z,95268.55
2018-12-31T15:44:17.875Z,95268.64
2018-12-31T15:46:51.669Z,95273.91
2018-12-31T15:49:25.188Z,95272.38
2018-12-31T15:52:01.129Z,95276.11
2018-12-31T15:54:34.652Z,95277.30
2018-12-31T15:57:08.430Z,95286.55
2018-12-31T15:59:43.863Z,95291.88
2018-12-31T16:02:17.489Z,95301.45
2018-12-31T16:04:51.549Z,95307.48
2018-12-31T16:07:27.788Z,95307.38
2018-12-31T16:10:01.835Z,95304.80
2018-12-31T16:12:35.191Z,95309.16
2018-12-31T16:15:10.032Z,95306.75
2018-12-31T16:17:43.400Z,95305.00
2018-12-31T16:20:18.065Z,95307.16
2018-12-31T16:22:51.401Z,95307.95
2018-12-31T16:25:26.117Z,95311.54
2018-12-31T16:27:59.320Z,95312.28
2018-12-31T16:30:32.575Z,95313.23
2018-12-31T16:33:06.311Z,95318.29
2018-12-31T16:35:39.629Z,95323.82
2018-12-31T16:38:13.055Z,95323.73
2018-12-31T16:40:46.219Z,95324.27
2018-12-31T16:43:20.256Z,95327.65
2018-12-31T16:45:53.820Z,95330.70
2018-12-31T16:48:27.434Z,95336.19
2018-12-31T16:51:00.796Z,95331.23
2018-12-31T16:53:33.994Z,95339.00
2018-12-31T16:56:07.321Z,95341.66
2018-12-31T16:58:40.854Z,95346.95
2018-12-31T17:01:14.121Z,95350.52
2018-12-31T17:03:47.698Z,95353.81
2018-12-31T17:06:21.024Z,95355.41
2018-12-31T17:08:58.058Z,95358.51
2018-12-31T17:11:31.272Z,95358.67
2018-12-31T17:14:04.744Z,95363.13
2018-12-31T17:16:37.788Z,95367.48
2018-12-31T17:19:11.919Z,95370.88
2018-12-31T17:21:45.385Z,95371.04
2018-12-31T17:24:18.382Z,95371.34
2018-12-31T17:26:51.675Z,95377.14
2018-12-31T17:29:24.788Z,95386.05
2018-12-31T17:31:58.458Z,95380.63
2018-12-31T17:34:31.717Z,95383.57
2018-12-31T17:37:06.015Z,95390.58
2018-12-31T17:39:40.179Z,95390.52
2018-12-31T17:42:14.238Z,95392.75
2018-12-31T17:44:47.694Z,95389.22
2018-12-31T17:47:20.661Z,95392.56
2018-12-31T17:49:54.540Z,95398.85
2018-12-31T17:52:27.355Z,95396.73
2018-12-31T17:55:00.590Z,95399.20
2018-12-31T17:57:33.495Z,95401.50
2018-12-31T18:00:08.515Z,95396.05
2018-12-31T18:02:41.648Z,95396.59
2018-12-31T18:05:14.827Z,95399.95
2018-12-31T18:07:48.234Z,95402.58
2018-12-31T18:10:21.270Z,95402.91
2018-12-31T18:12:54.616Z,95405.31
2018-12-31T18:15:27.806Z,95403.36
2018-12-31T18:18:00.963Z,95404.81
2018-12-31T18:20:34.634Z,95401.74
2018-12-31T18:23:07.598Z,95401.72
2018-12-31T18:25:41.288Z,95404.30
2018-12-31T18:28:14.135Z,95404.80
2018-12-31T18:30:47.438Z,95402.12
2018-12-31T18:33:20.524Z,95403.23
2018-12-31T18:35:53.486Z,95403.25
2018-12-31T18:38:27.167Z,95406.60
2018-12-31T18:41:00.346Z,95406.31
2018-12-31T18:43:33.285Z,95402.42
2018-12-31T18:46:07.099Z,95403.09
2018-12-31T18:48:49.284Z,95405.70
2018-12-31T18:51:25.780Z,95413.77
2018-12-31T18:54:01.958Z,95420.63
2018-12-31T18:56:41.327Z,95412.23
2018-12-31T18:59:15.766Z,95411.10
2018-12-31T19:01:53.095Z,95413.23
2018-12-31T19:04:29.500Z,95411.52
2018-12-31T19:07:05.540Z,95406.33
2018-12-31T19:09:39.264Z,95410.05
2018-12-31T19:12:16.043Z,95405.34
2018-12-31T19:14:53.090Z,95403.84
2018-12-31T19:17:30.302Z,95409.03
2018-12-31T19:20:06.867Z,95406.86
2018-12-31T19:22:42.830Z,95411.67
2018-12-31T19:25:21.305Z,95408.12
2018-12-31T19:27:59.780Z,95406.05
2018-12-31T19:30:35.443Z,95408.30
2018-12-31T19:33:11.695Z,95412.41
2018-12-31T19:35:49.274Z,95411.92
2018-12-31T19:38:25.339Z,95413.42
2018-12-31T19:41:02.121Z,95418.14
2018-12-31T19:43:40.353Z,95423.10
2018-12-31T19:46:17.843Z,95425.52
2018-12-31T19:48:52.073Z,95428.80
2018-12-31T19:51:27.874Z,95429.77
2018-12-31T19:54:02.933Z,95427.34
2018-12-31T19:56:37.790Z,95426.59
2018-12-31T19:59:13.495Z,95431.11
2018-12-31T20:01:50.315Z,95433.42
2018-12-31T20:04:26.412Z,95428.56
2018-12-31T20:07:01.615Z,95429.87
2018-12-31T20:09:37.543Z,95428.72
2018-12-31T20:12:14.048Z,95427.51
2018-12-31T20:14:47.551Z,95431.12
2018-12-31T20:17:20.760Z,95435.97
2018-12-31T20:19:53.960Z,95439.23
2018-12-31T20:22:27.038Z,95432.28
2018-12-31T20:24:59.752Z,95433.77
2018-12-31T20:27:32.828Z,95433.63
2018-12-31T20:30:06.479Z,95433.59
2018-12-31T20:32:39.597Z,95434.09
2018-12-31T20:35:12.622Z,95433.92
2018-12-31T20:37:46.137Z,95429.34
2018-12-31T20:40:18.990Z,95431.20
2018-12-31T20:42:52.346Z,95436.00
2018-12-31T20:45:25.706Z,95438.58
2018-12-31T20:48:01.891Z,95437.65
2018-12-31T20:50:34.077Z,95440.22
2018-12-31T20:53:07.875Z,95442.33
2018-12-31T20:55:40.601Z,95439.09
2018-12-31T20:58:13.614Z,95441.64
2018-12-31T21:00:46.881Z,95438.23
2018-12-31T21:03:20.167Z,95437.27
2018-12-31T21:05:53.193Z,95431.23
2018-12-31T21:08:26.535Z,95426.16
2018-12-31T21:10:59.686Z,95429.59
2018-12-31T21:13:32.507Z,95425.88
2018-12-31T21:16:05.739Z,95419.56
2018-12-31T21:18:39.011Z,95421.88
2018-12-31T21:21:12.659Z,95420.25
2018-12-31T21:23:46.174Z,95424.34
2018-12-31T21:26:19.709Z,95424.41
2018-12-31T21:28:52.642Z,95433.20
2018-12-31T21:31:26.202Z,95431.67
2018-12-31T21:33:59.441Z,95434.98
2018-12-31T21:36:32.455Z,95433.73
2018-12-31T21:39:07.043Z,95437.38
2018-12-31T21:41:40.116Z,95438.56
2018-12-31T21:44:13.167Z,95439.07
2018-12-31T21:46:46.051Z,95440.85
2018-12-31T21:49:19.628Z,95438.27
2018-12-31T21:51:52.875Z,95439.71
2018-12-31T21:54:26.612Z,95442.97
2018-12-31T21:57:02.366Z,95444.11
2018-12-31T21:59:35.864Z,95439.24
2018-12-31T22:02:09.441Z,95444.25
2018-12-31T22:04:42.782Z,95444.39
2018-12-31T22:07:16.815Z,95446.70
2018-12-31T22:09:50.165Z,95444.77
2018-12-31T22:12:23.318Z,95448.34
2018-12-31T22:14:56.672Z,95445.77
2018-12-31T22:17:30.163Z,95451.77
2018-12-31T22:20:03.420Z,95446.75
2018-12-31T22:22:36.690Z,95447.53
2018-12-31T22:25:10.217Z,95447.23
2018-12-31T22:27:43.854Z,95454.52
2018-12-31T22:30:17.197Z,95452.89
2018-12-31T22:32:50.499Z,95459.50
2018-12-31T22:35:23.820Z,95458.83
2018-12-31T22:37:57.444Z,95456.37
2018-12-31T22:40:30.795Z,95456.66
2018-12-31T22:43:03.830Z,95459.27
2018-12-31T22:45:37.020Z,95457.78
2018-12-31T22:48:10.028Z,95459.70
2018-12-31T22:50:43.434Z,95464.29
2018-12-31T22:53:16.757Z,95461.44
2018-12-31T22:55:50.123Z,95463.25
2018-12-31T22:58:23.201Z,95463.56
2018-12-31T23:00:56.036Z,95459.14
2018-12-31T23:03:29.489Z,95453.93
2018-12-31T23:06:02.610Z,95455.28
2018-12-31T23:08:35.919Z,95460.66
2018-12-31T23:11:09.456Z,95460.83
2018-12-31T23:13:44.447Z,95466.84
2018-12-31T23:16:23.404Z,95473.81
2018-12-31T23:18:57.063Z,95473.56
2018-12-31T23:21:29.809Z,95471.48
2018-12-31T23:24:02.613Z,95481.69
2018-12-31T23:26:36.309Z,95475.45
2018-12-31T23:29:09.478Z,95475.95
2018-12-31T23:31:42.747Z,95480.73
2018-12-31T23:34:16.032Z,95478.63
2018-12-31T23:36:48.914Z,95479.04
2018-12-31T23:39:23.677Z,95485.02
2018-12-31T23:41:57.056Z,95487.81
2018-12-31T23:44:30.904Z,95494.66
2018-12-31T23:47:04.324Z,95498.19
2018-12-31T23:49:37.479Z,95502.96
2018-12-31T23:52:10.939Z,95503.55
2018-12-31T23:54:44.446Z,95512.05
2018-12-31T23:57:18.018Z,95513.23
2018-12-31T23:59:51.507Z,95509.98
